Time;durP1;ratioP1;P1;durP2;ratioP2;P2;SDS_P1;SDS_P2;PMS_P1;PMS_P2;Temp;Humidity;BMP_temperature;BMP_pressure;BME280_temperature;BME280_humidity;BME280_pressure;Samples;Min_cycle;Max_cycle;Signal;HPM_P1;HPM_P2
2021/03/25 00:04:37;;;;;;;8.30;4.57;;;20.50;42.10;;;;;;20711884;28;20379;-20
2021/03/25 00:14:38;;;;;;;5.93;3.87;;;20.40;42.30;;;;;;20777457;28;20053;-19
2021/03/25 00:24:38;;;;;;;9.38;4.25;;;20.30;42.50;;;;;;20735428;28;20037;-21
2021/03/25 00:34:39;;;;;;;9.50;4.57;;;20.30;42.60;;;;;;20811251;28;20033;-19
2021/03/25 00:44:39;;;;;;;7.25;4.30;;;20.10;42.60;;;;;;20818889;28;20115;-19
2021/03/25 00:54:40;;;;;;;7.70;4.82;;;20.10;42.70;;;;;;20753323;28;20040;-21
2021/03/25 01:04:40;;;;;;;7.80;5.05;;;20.00;42.60;;;;;;20791860;28;20374;-22
2021/03/25 01:14:41;;;;;;;7.82;5.03;;;20.00;42.60;;;;;;20834201;28;20041;-20
2021/03/25 01:24:41;;;;;;;7.25;4.28;;;19.90;42.80;;;;;;20833756;28;20018;-20
2021/03/25 01:34:42;;;;;;;7.00;4.88;;;19.90;42.80;;;;;;20833409;28;20044;-21
2021/03/25 01:44:44;;;;;;;6.85;4.95;;;19.90;42.80;;;;;;20832279;28;20022;-21
2021/03/25 01:55:03;;;;;;;9.15;6.03;;;19.80;42.70;;;;;;20831404;28;20059;-22
2021/03/25 02:05:03;;;;;;;7.20;5.25;;;19.70;42.70;;;;;;20830337;28;20177;-19
2021/03/25 02:15:07;;;;;;;7.45;5.15;;;19.70;42.60;;;;;;20830532;28;20057;-21
2021/03/25 02:25:17;;;;;;;6.53;5.43;;;19.70;42.60;;;;;;20831907;28;20444;-19
2021/03/25 02:35:33;;;;;;;9.85;6.28;;;19.70;42.50;;;;;;20832816;28;20029;-21
2021/03/25 02:45:39;;;;;;;6.70;4.97;;;19.60;42.40;;;;;;20828352;28;20949;-22
2021/03/25 02:55:39;;;;;;;7.30;5.70;;;19.60;42.40;;;;;;20825991;28;20121;-21
2021/03/25 03:05:42;;;;;;;9.82;5.38;;;19.70;42.50;;;;;;20822608;28;20087;-21
2021/03/25 03:15:50;;;;;;;7.60;5.97;;;19.50;42.30;;;;;;20837187;28;20033;-20
2021/03/25 03:25:53;;;;;;;8.68;6.28;;;19.50;42.20;;;;;;20835592;28;20087;-20
2021/03/25 03:35:58;;;;;;;9.65;5.82;;;19.50;42.20;;;;;;20838798;28;20064;-20
2021/03/25 03:46:04;;;;;;;7.32;5.43;;;19.40;42.10;;;;;;20823830;28;20028;-21
2021/03/25 03:56:15;;;;;;;8.30;5.78;;;19.40;42.00;;;;;;20822939;28;20045;-22
2021/03/25 04:06:23;;;;;;;7.97;5.25;;;19.40;42.10;;;;;;20820307;28;20029;-21
2021/03/25 04:16:26;;;;;;;9.23;5.25;;;19.40;42.00;;;;;;20820360;28;20021;-22
2021/03/25 04:26:35;;;;;;;6.88;5.40;;;19.30;41.90;;;;;;20820459;28;20033;-21
2021/03/25 04:36:41;;;;;;;7.03;5.60;;;19.30;41.90;;;;;;20823873;28;20022;-19
2021/03/25 04:46:53;;;;;;;10.23;6.30;;;19.30;42.00;;;;;;20809755;28;20033;-22
2021/03/25 04:57:04;;;;;;;10.75;7.38;;;19.30;41.90;;;;;;20828563;28;20057;-21
2021/03/25 05:07:05;;;;;;;10.18;6.93;;;19.30;41.90;;;;;;20827572;28;20034;-21
2021/03/25 05:17:35;;;;;;;7.47;5.38;;;19.20;41.90;;;;;;20808445;28;20018;-20
2021/03/25 05:27:57;;;;;;;7.47;6.00;;;19.50;41.20;;;;;;20818607;28;20423;-19
2021/03/25 05:37:58;;;;;;;8.60;6.30;;;20.10;40.20;;;;;;20826591;28;20068;-22
2021/03/25 05:48:34;;;;;;;10.30;5.75;;;20.70;39.00;;;;;;20833214;28;20095;-21
2021/03/25 05:59:01;;;;;;;7.50;5.28;;;21.30;38.40;;;;;;20759102;23;20084;-25
2021/03/25 06:09:13;;;;;;;9.10;5.03;;;22.00;36.90;;;;;;20834211;28;20021;-25
2021/03/25 06:19:36;;;;;;;10.07;5.43;;;22.60;36.00;;;;;;20816133;28;20072;-21
2021/03/25 06:29:46;;;;;;;8.43;5.95;;;22.80;36.10;;;;;;20823764;28;20437;-20
2021/03/25 06:39:58;;;;;;;8.48;5.78;;;22.60;35.90;;;;;;20813431;28;20037;-21
2021/03/25 06:50:02;;;;;;;9.45;6.93;;;22.30;36.30;;;;;;20823204;28;20033;-21
2021/03/25 07:00:03;;;;;;;9.10;6.10;;;22.00;36.70;;;;;;20776405;28;20041;-20
2021/03/25 07:10:05;;;;;;;16.25;6.65;;;21.80;37.20;;;;;;20768181;28;20060;-23
2021/03/25 07:20:17;;;;;;;12.15;5.15;;;21.80;37.10;;;;;;20767979;28;20038;-24
2021/03/25 07:30:20;;;;;;;9.90;5.40;;;21.60;37.50;;;;;;20820984;28;20032;-24
2021/03/25 07:40:28;;;;;;;24.90;8.68;;;21.50;37.60;;;;;;20811929;28;20053;-23
2021/03/25 07:50:32;;;;;;;24.05;10.15;;;21.50;38.00;;;;;;20783481;28;20021;-20
2021/03/25 08:00:35;;;;;;;23.23;10.55;;;21.40;38.10;;;;;;20805432;28;20052;-21
2021/03/25 08:10:40;;;;;;;24.15;10.85;;;21.30;38.30;;;;;;20799843;28;20045;-24
2021/03/25 08:20:59;;;;;;;21.60;11.15;;;21.40;38.20;;;;;;20840401;28;20514;-22
2021/03/25 08:31:25;;;;;;;19.95;9.77;;;21.20;38.20;;;;;;20820873;28;20604;-21
2021/03/25 08:41:28;;;;;;;24.25;10.18;;;21.10;38.40;;;;;;20817524;28;20091;-21
2021/03/25 08:51:35;;;;;;;22.27;8.73;;;21.00;38.60;;;;;;20822923;28;20057;-25
2021/03/25 09:01:42;;;;;;;14.63;9.27;;;20.80;38.70;;;;;;20828216;28;20041;-22
2021/03/25 09:11:43;;;;;;;17.52;10.05;;;20.60;39.00;;;;;;20824751;28;20038;-24
2021/03/25 09:21:48;;;;;;;16.77;8.43;;;20.50;39.20;;;;;;20761119;28;20073;-27
2021/03/25 09:31:54;;;;;;;12.88;6.53;;;20.70;39.60;;;;;;20759722;28;20025;-25
2021/03/25 09:41:58;;;;;;;10.40;6.55;;;21.20;39.20;;;;;;20758181;28;20500;-24
2021/03/25 09:52:07;;;;;;;11.05;5.60;;;21.80;38.40;;;;;;20758056;28;20022;-21
2021/03/25 10:02:09;;;;;;;11.02;4.53;;;22.40;37.40;;;;;;20756649;28;20510;-22
2021/03/25 10:12:11;;;;;;;7.97;3.97;;;23.10;36.80;;;;;;20761346;28;20036;-23
2021/03/25 10:22:21;;;;;;;10.00;4.40;;;23.60;36.30;;;;;;20772529;28;20029;-21
2021/03/25 10:32:34;;;;;;;10.65;3.67;;;23.90;35.80;;;;;;20768150;28;20041;-25
2021/03/25 10:42:40;;;;;;;9.32;4.30;;;23.80;36.10;;;;;;20763752;28;20026;-21
2021/03/25 10:52:41;;;;;;;6.90;4.10;;;23.60;36.50;;;;;;20777841;28;20030;-25
2021/03/25 11:02:45;;;;;;;8.77;3.78;;;23.40;36.80;;;;;;20757993;28;20026;-20
2021/03/25 11:12:53;;;;;;;8.95;3.28;;;23.10;37.40;;;;;;20744064;28;20026;-22
2021/03/25 11:22:56;;;;;;;7.70;4.22;;;23.00;37.90;;;;;;20774527;28;20036;-24
2021/03/25 11:32:57;;;;;;;9.52;3.75;;;23.00;38.60;;;;;;20772061;28;20026;-22
2021/03/25 11:43:11;;;;;;;8.05;3.50;;;22.90;38.50;;;;;;20751458;28;20076;-25
2021/03/25 11:53:33;;;;;;;10.82;4.03;;;22.80;38.40;;;;;;20757892;28;20034;-21
2021/03/25 12:03:47;;;;;;;9.77;4.03;;;22.90;38.80;;;;;;20767085;28;20038;-21
2021/03/25 12:13:47;;;;;;;10.85;4.32;;;22.90;38.80;;;;;;20761233;28;20183;-20
2021/03/25 12:23:48;;;;;;;9.30;3.90;;;22.90;38.50;;;;;;20754494;28;20018;-21
2021/03/25 12:33:49;;;;;;;14.20;3.40;;;22.90;38.20;;;;;;20830718;28;20040;-23
2021/03/25 12:43:50;;;;;;;5.13;3.25;;;22.80;38.30;;;;;;20843068;28;20044;-22
2021/03/25 12:53:51;;;;;;;8.07;3.60;;;22.90;38.20;;;;;;20850937;28;20037;-26
2021/03/25 13:03:51;;;;;;;8.25;3.67;;;22.80;38.30;;;;;;20845811;28;20048;-24
2021/03/25 13:13:53;;;;;;;4.50;2.65;;;23.00;37.90;;;;;;20848847;28;20029;-24
2021/03/25 13:23:54;;;;;;;8.18;2.97;;;23.10;38.10;;;;;;20822260;28;20041;-24
2021/03/25 13:33:55;;;;;;;15.25;4.20;;;23.20;37.70;;;;;;20845172;28;20037;-22
2021/03/25 13:43:55;;;;;;;12.70;4.88;;;23.20;37.80;;;;;;20838647;28;20049;-24
2021/03/25 13:53:56;;;;;;;14.50;4.55;;;23.40;37.40;;;;;;20832138;28;20493;-26
2021/03/25 14:03:57;;;;;;;9.32;4.93;;;23.30;37.50;;;;;;20817874;28;20065;-20
2021/03/25 14:13:58;;;;;;;18.47;3.60;;;23.50;38.30;;;;;;20843636;28;20060;-23
2021/03/25 14:23:58;;;;;;;21.15;5.45;;;23.30;38.90;;;;;;20834105;28;20472;-21
2021/03/25 14:34:00;;;;;;;20.73;4.33;;;23.30;39.50;;;;;;20806891;23;20097;-20
2021/03/25 14:44:01;;;;;;;13.60;4.97;;;23.30;40.10;;;;;;20724785;28;20033;-22
2021/03/25 14:54:01;;;;;;;19.88;4.95;;;23.20;40.30;;;;;;20809247;28;20083;-21
2021/03/25 15:04:02;;;;;;;14.80;4.07;;;23.30;40.80;;;;;;20753446;28;20040;-21
2021/03/25 15:14:04;;;;;;;15.03;4.97;;;23.30;41.10;;;;;;20783369;28;20396;-23
2021/03/25 15:24:05;;;;;;;15.90;4.18;;;23.50;41.40;;;;;;20807091;28;20476;-21
2021/03/25 15:34:06;;;;;;;21.88;6.65;;;23.30;41.80;;;;;;20804349;28;20037;-19
2021/03/25 15:44:09;;;;;;;14.65;4.97;;;23.60;42.30;;;;;;20822963;28;20025;-20
2021/03/25 15:54:11;;;;;;;31.33;6.68;;;23.40;42.70;;;;;;20768711;28;20048;-20
2021/03/25 16:04:12;;;;;;;19.58;6.00;;;23.40;42.90;;;;;;20777577;28;20076;-21
2021/03/25 16:14:13;;;;;;;23.90;7.38;;;23.40;43.30;;;;;;20817294;28;20042;-21
2021/03/25 16:24:14;;;;;;;18.75;7.10;;;23.30;43.80;;;;;;20781262;28;20425;-22
2021/03/25 16:34:14;;;;;;;23.53;7.77;;;23.20;44.00;;;;;;20820885;28;20045;-20
2021/03/25 16:44:15;;;;;;;28.92;8.32;;;23.20;43.90;;;;;;20785188;28;20057;-22
2021/03/25 16:54:16;;;;;;;23.20;8.47;;;23.00;43.80;;;;;;20776767;28;20119;-23
2021/03/25 17:04:17;;;;;;;25.95;9.85;;;23.10;43.50;;;;;;20807044;28;20472;-22
2021/03/25 17:14:17;;;;;;;46.47;11.77;;;23.00;43.40;;;;;;20786463;28;20033;-22
2021/03/25 17:24:18;;;;;;;31.15;12.63;;;23.00;43.40;;;;;;20788632;28;20476;-21
2021/03/25 17:34:20;;;;;;;45.10;11.32;;;23.10;42.90;;;;;;20769434;28;20043;-21
2021/03/25 17:44:20;;;;;;;65.78;12.93;;;23.00;42.90;;;;;;20834168;28;20036;-21
2021/03/25 17:54:21;;;;;;;48.55;13.32;;;22.90;44.00;;;;;;20805656;28;20062;-21
2021/03/25 18:04:21;;;;;;;33.22;11.57;;;23.10;43.40;;;;;;20832250;28;20398;-20
2021/03/25 18:14:22;;;;;;;21.60;10.45;;;23.10;43.50;;;;;;20831274;28;20028;-21
2021/03/25 18:24:25;;;;;;;23.80;8.97;;;23.20;43.20;;;;;;20828993;28;20079;-23
2021/03/25 18:34:26;;;;;;;27.77;9.95;;;23.20;43.20;;;;;;20822558;28;20045;-20
2021/03/25 18:44:26;;;;;;;19.27;9.88;;;23.20;43.30;;;;;;20829499;28;20039;-21
2021/03/25 18:54:27;;;;;;;22.55;9.70;;;23.00;42.90;;;;;;20780193;28;20099;-20
2021/03/25 19:04:28;;;;;;;24.55;10.63;;;23.00;42.20;;;;;;20748415;28;20117;-21
2021/03/25 19:14:28;;;;;;;22.17;10.38;;;22.80;42.30;;;;;;20751132;28;20038;-20
2021/03/25 19:24:29;;;;;;;20.93;9.20;;;23.00;42.70;;;;;;20742171;28;20406;-21
2021/03/25 19:34:29;;;;;;;14.02;8.45;;;23.00;42.00;;;;;;20763653;28;20611;-19
2021/03/25 19:44:30;;;;;;;13.32;6.35;;;22.80;42.50;;;;;;20781340;28;20029;-19
2021/03/25 19:54:31;;;;;;;26.88;8.65;;;23.00;42.50;;;;;;20821093;28;20025;-22
2021/03/25 20:04:31;;;;;;;15.50;6.30;;;22.90;42.70;;;;;;20822932;28;20030;-20
2021/03/25 20:14:32;;;;;;;11.35;6.57;;;23.10;42.30;;;;;;20784107;28;20079;-20
2021/03/25 20:24:33;;;;;;;8.05;5.43;;;23.10;42.30;;;;;;20796649;28;20107;-20
2021/03/25 20:34:33;;;;;;;22.23;6.33;;;23.30;41.90;;;;;;20790260;28;20025;-20
2021/03/25 20:44:34;;;;;;;9.50;5.43;;;23.30;42.30;;;;;;20742261;28;20026;-21
2021/03/25 20:54:35;;;;;;;9.45;5.20;;;23.40;42.30;;;;;;20732729;28;20554;-19
2021/03/25 21:04:36;;;;;;;13.75;4.47;;;23.20;42.50;;;;;;20733370;28;20402;-21
2021/03/25 21:14:36;;;;;;;7.77;4.50;;;23.30;42.70;;;;;;20740580;28;20103;-20
2021/03/25 21:24:37;;;;;;;11.45;4.70;;;23.10;42.80;;;;;;20747644;28;20033;-19
2021/03/25 21:34:38;;;;;;;16.10;4.63;;;23.00;43.40;;;;;;20746472;28;20041;-19
2021/03/25 21:44:39;;;;;;;8.60;5.20;;;22.80;43.60;;;;;;20679224;28;20487;-21
2021/03/25 21:54:40;;;;;;;7.78;4.28;;;22.80;43.70;;;;;;20674243;28;20030;-19
2021/03/25 22:04:40;;;;;;;6.82;4.32;;;22.80;44.00;;;;;;20730120;28;20105;-20
2021/03/25 22:14:41;;;;;;;6.78;3.88;;;22.50;44.00;;;;;;20738646;28;20080;-22
2021/03/25 22:24:42;;;;;;;10.03;3.90;;;22.30;44.30;;;;;;20741089;28;20125;-21
2021/03/25 22:34:42;;;;;;;8.05;4.15;;;22.30;44.40;;;;;;20741501;28;20464;-21
2021/03/25 22:44:43;;;;;;;5.82;4.05;;;22.10;44.90;;;;;;20740483;28;20072;-19
2021/03/25 22:54:44;;;;;;;8.55;5.07;;;22.10;44.70;;;;;;20743521;28;20041;-20
2021/03/25 23:04:45;;;;;;;10.15;4.82;;;22.00;44.70;;;;;;20743833;28;20053;-20
2021/03/25 23:14:46;;;;;;;7.25;3.70;;;21.80;44.50;;;;;;20729857;23;20507;-23
2021/03/25 23:24:48;;;;;;;9.27;4.57;;;21.80;44.50;;;;;;20661890;28;20030;-21
2021/03/25 23:34:50;;;;;;;16.38;4.32;;;21.70;44.50;;;;;;20659366;28;20160;-20
2021/03/25 23:44:54;;;;;;;20.08;5.28;;;21.60;44.70;;;;;;20644516;28;20030;-22
2021/03/25 23:54:54;;;;;;;14.10;4.68;;;21.50;45.70;;;;;;20579402;28;20030;-24
